createdAt,value
2018-10-11T00:02:22.284Z,16.12
2018-10-11T00:04:49.881Z,16.17
2018-10-11T00:07:17.463Z,15.35
2018-10-11T00:09:44.996Z,14.68
2018-10-11T00:12:12.585Z,15.18
2018-10-11T00:14:40.187Z,15.63
2018-10-11T00:17:07.754Z,16.50
2018-10-11T00:19:35.274Z,16.90
2018-10-11T00:22:02.903Z,16.05
2018-10-11T00:24:30.691Z,15.00
2018-10-11T00:26:58.197Z,15.40
2018-10-11T00:29:25.785Z,15.25
2018-10-11T00:31:53.312Z,17.95
2018-10-11T00:34:20.836Z,16.37
2018-10-11T00:36:48.354Z,17.75
2018-10-11T00:39:15.919Z,16.93
2018-10-11T00:41:43.449Z,15.88
2018-10-11T00:44:14.184Z,15.80
2018-10-11T00:46:42.483Z,17.87
2018-10-11T00:49:10.034Z,16.27
2018-10-11T00:51:37.535Z,20.00
2018-10-11T00:54:05.040Z,20.23
2018-10-11T00:56:32.594Z,19.73
2018-10-11T00:59:00.074Z,19.62
2018-10-11T01:01:27.612Z,20.20
2018-10-11T01:03:55.143Z,19.73
2018-10-11T01:06:22.715Z,19.40
2018-10-11T01:08:50.185Z,18.80
2018-10-11T01:11:17.749Z,18.23
2018-10-11T01:13:45.267Z,16.93
2018-10-11T01:16:12.828Z,16.93
2018-10-11T01:18:40.344Z,17.92
2018-10-11T01:21:08.282Z,18.40
2018-10-11T01:23:35.845Z,18.05
2018-10-11T01:26:03.435Z,17.75
2018-10-11T01:28:30.937Z,18.92
2018-10-11T01:31:04.056Z,18.30
2018-10-11T01:33:31.593Z,17.62
2018-10-11T01:35:59.132Z,16.85
2018-10-11T01:38:26.764Z,15.90
2018-10-11T01:40:54.484Z,15.25
2018-10-11T01:43:22.081Z,16.45
2018-10-11T01:45:49.653Z,17.00
2018-10-11T01:48:17.234Z,18.87
2018-10-11T01:50:44.794Z,18.40
2018-10-11T01:53:12.370Z,18.12
2018-10-11T01:55:39.945Z,16.55
2018-10-11T01:58:07.446Z,16.82
2018-10-11T02:00:35.020Z,17.00
2018-10-11T02:03:02.526Z,17.70
2018-10-11T02:05:30.063Z,16.35
2018-10-11T02:07:58.352Z,16.67
2018-10-11T02:10:26.892Z,14.83
2018-10-11T02:12:54.496Z,15.53
2018-10-11T02:15:22.056Z,15.75
2018-10-11T02:17:49.577Z,16.15
2018-10-11T02:20:17.099Z,14.95
2018-10-11T02:22:44.626Z,15.40
2018-10-11T02:25:12.409Z,15.38
2018-10-11T02:27:40.668Z,13.95
2018-10-11T02:30:08.592Z,15.70
2018-10-11T02:32:36.122Z,16.30
2018-10-11T02:35:03.757Z,15.65
2018-10-11T02:37:31.230Z,15.83
2018-10-11T02:39:58.765Z,15.43
2018-10-11T02:42:26.839Z,17.00
2018-10-11T02:44:54.325Z,16.62
2018-10-11T02:47:21.886Z,15.38
2018-10-11T02:49:49.410Z,13.68
2018-10-11T02:52:16.975Z,12.05
2018-10-11T02:54:44.554Z,12.95
2018-10-11T02:57:23.318Z,13.18
2018-10-11T02:59:50.963Z,13.58
2018-10-11T03:02:18.598Z,13.85
2018-10-11T03:04:47.038Z,12.78
2018-10-11T03:07:14.964Z,13.10
2018-10-11T03:09:42.911Z,14.70
2018-10-11T03:12:10.872Z,13.30
2018-10-11T03:14:38.497Z,13.43
2018-10-11T03:17:06.382Z,13.32
2018-10-11T03:19:33.922Z,15.65
2018-10-11T03:22:01.475Z,15.23
2018-10-11T03:24:28.951Z,15.10
2018-10-11T03:26:58.569Z,13.83
2018-10-11T03:29:26.039Z,14.87
2018-10-11T03:31:53.808Z,14.33
2018-10-11T03:34:21.278Z,13.40
2018-10-11T03:36:48.815Z,13.35
2018-10-11T03:39:16.316Z,14.05
2018-10-11T03:41:43.936Z,15.38
2018-10-11T03:44:11.579Z,13.58
2018-10-11T03:46:39.400Z,12.55
2018-10-11T03:49:06.832Z,14.15
2018-10-11T03:51:34.430Z,15.08
2018-10-11T03:54:01.951Z,13.68
2018-10-11T03:56:29.505Z,14.35
2018-10-11T03:58:57.553Z,13.53
2018-10-11T04:01:25.206Z,13.80
2018-10-11T04:03:52.731Z,13.65
2018-10-11T04:06:20.263Z,13.62
2018-10-11T04:08:47.795Z,14.05
2018-10-11T04:11:15.327Z,14.58
2018-10-11T04:13:43.227Z,15.03
2018-10-11T04:16:10.747Z,14.90
2018-10-11T04:18:38.527Z,14.38
2018-10-11T04:21:06.393Z,15.40
2018-10-11T04:23:33.888Z,14.28
2018-10-11T04:26:01.482Z,15.08
2018-10-11T04:28:29.499Z,16.87
2018-10-11T04:30:58.100Z,15.28
2018-10-11T04:33:26.155Z,16.30
2018-10-11T04:35:53.836Z,15.10
2018-10-11T04:38:21.351Z,16.27
2018-10-11T04:40:48.878Z,14.45
2018-10-11T04:43:16.639Z,14.90
2018-10-11T04:45:44.174Z,16.17
2018-10-11T04:48:12.115Z,16.93
2018-10-11T04:50:41.239Z,15.98
2018-10-11T04:53:09.101Z,14.78
2018-10-11T04:55:36.668Z,15.40
2018-10-11T04:58:04.232Z,16.50
2018-10-11T05:00:31.723Z,17.80
2018-10-11T05:02:59.241Z,18.20
2018-10-11T05:05:26.851Z,18.15
2018-10-11T05:07:54.341Z,19.73
2018-10-11T05:10:21.870Z,20.50
2018-10-11T05:12:49.455Z,18.40
2018-10-11T05:15:17.087Z,19.48
2018-10-11T05:17:45.057Z,20.50
2018-10-11T05:20:12.744Z,20.32
2018-10-11T05:22:40.251Z,21.17
2018-10-11T05:25:07.807Z,19.40
2018-10-11T05:27:35.473Z,19.60
2018-10-11T05:30:03.222Z,19.48
2018-10-11T05:32:30.866Z,20.08
2018-10-11T05:34:58.478Z,20.23
2018-10-11T05:37:26.075Z,23.70
2018-10-11T05:39:53.593Z,24.30
2018-10-11T05:42:21.213Z,23.55
2018-10-11T05:44:49.087Z,24.12
2018-10-11T05:47:16.807Z,24.70
2018-10-11T05:49:44.417Z,23.52
2018-10-11T05:52:12.188Z,24.05
2018-10-11T05:54:39.808Z,22.22
2018-10-11T05:57:07.408Z,23.73
2018-10-11T05:59:35.074Z,21.52
2018-10-11T06:02:02.752Z,21.48
2018-10-11T06:04:30.383Z,23.47
2018-10-11T06:06:57.921Z,23.07
2018-10-11T06:09:25.521Z,23.27
2018-10-11T06:11:53.178Z,22.13
2018-10-11T06:14:20.853Z,21.70
2018-10-11T06:16:48.443Z,18.82
2018-10-11T06:19:15.988Z,19.32
2018-10-11T06:21:43.901Z,19.60
2018-10-11T06:24:11.507Z,19.15
2018-10-11T06:26:39.099Z,20.27
2018-10-11T06:29:06.885Z,20.70
2018-10-11T06:31:34.589Z,19.37
2018-10-11T06:34:02.208Z,21.42
2018-10-11T06:36:29.986Z,20.55
2018-10-11T06:38:58.461Z,21.48
2018-10-11T06:41:26.115Z,21.95
2018-10-11T06:43:53.752Z,23.10
2018-10-11T06:46:21.369Z,23.22
2018-10-11T06:48:48.941Z,22.27
2018-10-11T06:51:16.587Z,24.90
2018-10-11T06:53:44.231Z,22.77
2018-10-11T06:56:11.891Z,24.35
2018-10-11T06:58:39.436Z,25.82
2018-10-11T07:01:07.131Z,27.45
2018-10-11T07:03:34.944Z,28.87
2018-10-11T07:06:03.425Z,28.10
2018-10-11T07:08:31.321Z,27.93
2018-10-11T07:10:58.952Z,26.65
2018-10-11T07:13:26.540Z,27.48
2018-10-11T07:15:54.095Z,27.15
2018-10-11T07:18:21.695Z,26.57
2018-10-11T07:20:49.378Z,26.65
2018-10-11T07:23:16.950Z,26.85
2018-10-11T07:25:45.564Z,28.10
2018-10-11T07:28:13.239Z,28.42
2018-10-11T07:30:40.912Z,28.10
2018-10-11T07:33:08.528Z,26.57
2018-10-11T07:35:36.295Z,28.20
2018-10-11T07:38:03.734Z,26.48
2018-10-11T07:40:31.599Z,28.70
2018-10-11T07:42:59.104Z,27.32
2018-10-11T07:45:26.627Z,29.20
2018-10-11T07:47:54.209Z,27.75
2018-10-11T07:50:33.147Z,25.35
2018-10-11T07:53:00.834Z,26.00
2018-10-11T07:55:28.384Z,26.70
2018-10-11T07:57:55.967Z,26.27
2018-10-11T08:00:23.529Z,25.90
2018-10-11T08:02:51.979Z,27.20
2018-10-11T08:05:19.677Z,25.02
2018-10-11T08:07:47.327Z,26.70
2018-10-11T08:10:14.869Z,27.23
2018-10-11T08:12:42.504Z,26.00
2018-10-11T08:15:10.029Z,24.97
2018-10-11T08:17:38.136Z,25.00
2018-10-11T08:20:05.382Z,26.57
2018-10-11T08:22:32.925Z,26.50
2018-10-11T08:25:00.538Z,24.15
2018-10-11T08:27:28.129Z,23.87
2018-10-11T08:29:55.735Z,24.03
2018-10-11T08:32:23.520Z,25.30
2018-10-11T08:34:51.011Z,25.67
2018-10-11T08:37:18.785Z,25.43
2018-10-11T08:39:46.314Z,26.33
2018-10-11T08:42:13.933Z,24.63
2018-10-11T08:44:41.540Z,24.60
2018-10-11T08:47:09.128Z,25.47
2018-10-11T08:49:36.689Z,24.90
2018-10-11T08:52:04.273Z,23.83
2018-10-11T08:54:37.536Z,24.03
2018-10-11T08:57:05.275Z,23.40
2018-10-11T08:59:32.888Z,26.27
2018-10-11T09:02:00.556Z,23.87
2018-10-11T09:04:28.157Z,22.50
2018-10-11T09:06:55.862Z,23.97
2018-10-11T09:09:23.532Z,22.77
2018-10-11T09:11:51.158Z,23.17
2018-10-11T09:14:18.861Z,22.63
2018-10-11T09:16:46.484Z,23.10
2018-10-11T09:19:14.032Z,24.33
2018-10-11T09:21:41.706Z,23.30
2018-10-11T09:24:09.264Z,23.00
2018-10-11T09:26:36.865Z,22.97
2018-10-11T09:29:04.470Z,24.70
2018-10-11T09:31:32.060Z,22.50
2018-10-11T09:33:59.655Z,21.10
2018-10-11T09:36:27.288Z,22.10
2018-10-11T09:38:54.911Z,21.47
2018-10-11T09:41:22.438Z,22.87
2018-10-11T09:43:50.105Z,22.63
2018-10-11T09:46:17.747Z,23.20
2018-10-11T09:48:45.382Z,22.07
2018-10-11T09:51:12.929Z,21.30
2018-10-11T09:53:40.868Z,21.20
2018-10-11T09:56:08.481Z,21.80
2018-10-11T09:58:36.153Z,21.40
2018-10-11T10:02:10.011Z,20.70
2018-10-11T10:04:38.365Z,21.00
2018-10-11T10:07:05.894Z,20.97
2018-10-11T10:09:33.474Z,20.67
2018-10-11T10:12:01.093Z,20.10
2018-10-11T10:14:28.743Z,20.17
2018-10-11T10:16:56.742Z,20.23
2018-10-11T10:19:24.429Z,21.20
2018-10-11T10:21:52.030Z,18.37
2018-10-11T10:24:20.076Z,19.83
2018-10-11T10:26:48.462Z,20.43
2018-10-11T10:29:16.312Z,19.23
2018-10-11T10:31:43.915Z,20.43
2018-10-11T10:34:11.592Z,18.67
2018-10-11T10:36:39.269Z,19.70
2018-10-11T10:39:07.545Z,19.00
2018-10-11T10:41:35.122Z,19.20
2018-10-11T10:44:03.018Z,19.13
2018-10-11T10:46:30.645Z,20.47
2018-10-11T10:48:58.368Z,17.90
2018-10-11T10:51:25.866Z,19.13
2018-10-11T10:53:53.517Z,18.23
2018-10-11T10:56:21.154Z,17.53
2018-10-11T10:58:48.748Z,18.10
2018-10-11T11:01:16.374Z,17.30
2018-10-11T11:03:43.968Z,18.33
2018-10-11T11:06:11.536Z,26.40
2018-10-11T11:08:39.042Z,17.77
2018-10-11T11:11:06.980Z,20.30
2018-10-11T11:13:34.595Z,17.70
2018-10-11T11:16:02.353Z,17.90
2018-10-11T11:18:29.964Z,17.47
2018-10-11T11:20:57.534Z,16.37
2018-10-11T11:23:25.072Z,17.37
2018-10-11T11:25:52.613Z,16.90
2018-10-11T11:28:20.204Z,15.50
2018-10-11T11:30:47.796Z,15.57
2018-10-11T11:33:15.413Z,15.43
2018-10-11T11:35:42.957Z,16.00
2018-10-11T11:38:10.735Z,14.63
2018-10-11T11:40:38.634Z,16.63
2018-10-11T11:43:06.634Z,14.43
2018-10-11T11:45:34.275Z,14.40
2018-10-11T11:48:01.945Z,14.27
2018-10-11T11:50:29.614Z,15.10
2018-10-11T11:52:57.238Z,14.23
2018-10-11T11:55:24.935Z,14.27
2018-10-11T11:57:52.506Z,15.20
2018-10-11T12:00:21.362Z,14.53
2018-10-11T12:02:49.267Z,13.83
2018-10-11T12:05:16.885Z,14.60
2018-10-11T12:07:44.459Z,13.47
2018-10-11T12:10:12.012Z,13.80
2018-10-11T12:12:59.471Z,13.60
2018-10-11T12:15:28.297Z,13.37
2018-10-11T12:17:57.969Z,12.70
2018-10-11T12:20:29.147Z,12.30
2018-10-11T12:22:57.834Z,12.23
2018-10-11T12:25:25.916Z,12.37
2018-10-11T12:27:53.550Z,11.47
2018-10-11T12:30:21.245Z,11.17
2018-10-11T12:32:48.766Z,11.80
2018-10-11T12:35:18.719Z,11.23
2018-10-11T12:37:46.336Z,11.07
2018-10-11T12:40:14.509Z,10.87
2018-10-11T12:42:42.104Z,10.80
2018-10-11T12:45:10.623Z,11.23
2018-10-11T12:47:38.642Z,10.13
2018-10-11T12:50:07.021Z,9.87
2018-10-11T12:52:34.663Z,8.77
2018-10-11T12:55:02.423Z,8.60
2018-10-11T12:57:30.085Z,9.23
2018-10-11T12:59:57.679Z,8.70
2018-10-11T13:02:25.313Z,7.73
2018-10-11T13:04:52.940Z,7.47
2018-10-11T13:07:20.543Z,7.97
2018-10-11T13:09:48.139Z,8.63
2018-10-11T13:12:15.828Z,8.27
2018-10-11T13:14:43.436Z,8.67
2018-10-11T13:17:11.064Z,7.63
2018-10-11T13:19:38.760Z,7.23
2018-10-11T13:22:06.411Z,7.00
2018-10-11T13:24:39.766Z,8.10
2018-10-11T13:27:01.854Z,7.90
2018-10-11T13:29:29.489Z,7.03
2018-10-11T13:31:57.077Z,7.30
2018-10-11T13:34:24.690Z,7.40
2018-10-11T13:36:52.399Z,8.10
2018-10-11T13:39:21.157Z,7.20
2018-10-11T13:41:48.117Z,8.30
2018-10-11T13:44:15.707Z,8.43
2018-10-11T13:46:43.359Z,8.10
2018-10-11T13:49:11.002Z,8.33
2018-10-11T13:51:38.576Z,8.13
2018-10-11T13:54:06.224Z,8.20
2018-10-11T13:56:34.120Z,7.60
2018-10-11T13:59:05.013Z,7.57
2018-10-11T14:01:29.557Z,8.03
2018-10-11T14:03:57.379Z,7.60
2018-10-11T14:06:25.113Z,8.00
2018-10-11T14:08:53.080Z,8.60
2018-10-11T14:11:20.671Z,8.57
2018-10-11T14:13:48.311Z,7.37
2018-10-11T14:16:16.217Z,7.50
2018-10-11T14:18:43.924Z,7.63
2018-10-11T14:21:11.580Z,8.00
2018-10-11T14:23:39.398Z,7.80
2018-10-11T14:26:07.528Z,7.87
2018-10-11T14:28:35.220Z,7.73
2018-10-11T14:31:02.902Z,8.20
2018-10-11T14:33:30.527Z,7.27
2018-10-11T14:35:58.148Z,7.80
2018-10-11T14:38:25.845Z,8.13
2018-10-11T14:40:53.465Z,8.50
2018-10-11T14:43:21.278Z,7.87
2018-10-11T14:45:48.959Z,7.83
2018-10-11T14:48:16.669Z,7.67
2018-10-11T14:50:44.388Z,8.10
2018-10-11T14:53:12.037Z,7.73
2018-10-11T14:55:39.870Z,8.97
2018-10-11T14:58:07.437Z,7.73
2018-10-11T15:00:35.076Z,8.23
2018-10-11T15:03:02.993Z,7.30
2018-10-11T15:05:30.419Z,8.07
2018-10-11T15:07:58.095Z,7.70
2018-10-11T15:10:25.747Z,7.97
2018-10-11T15:12:53.444Z,8.20
2018-10-11T15:15:21.540Z,8.93
2018-10-11T15:17:49.252Z,8.23
2018-10-11T15:20:16.828Z,8.50
2018-10-11T15:22:44.558Z,8.47
2018-10-11T15:25:12.339Z,8.63
2018-10-11T15:27:40.201Z,8.27
2018-10-11T15:30:08.347Z,8.23
2018-10-11T15:32:35.937Z,8.60
2018-10-11T15:35:03.715Z,8.03
2018-10-11T15:37:31.314Z,7.33
2018-10-11T15:39:59.011Z,7.27
2018-10-11T15:42:26.796Z,7.80
2018-10-11T15:44:54.393Z,7.73
2018-10-11T15:47:22.192Z,7.67
2018-10-11T15:49:49.817Z,7.93
2018-10-11T15:52:17.534Z,8.10
2018-10-11T15:54:45.191Z,9.07
2018-10-11T15:57:12.772Z,8.53
2018-10-11T15:59:40.396Z,8.30
2018-10-11T16:02:08.093Z,7.90
2018-10-11T16:04:35.757Z,8.03
2018-10-11T16:07:03.454Z,8.37
2018-10-11T16:09:31.124Z,8.30
2018-10-11T16:11:58.800Z,8.07
2018-10-11T16:14:26.415Z,8.30
2018-10-11T16:16:53.974Z,9.03
2018-10-11T16:19:21.631Z,8.53
2018-10-11T16:21:49.250Z,8.90
2018-10-11T16:24:16.899Z,10.00
2018-10-11T16:26:44.642Z,9.00
2018-10-11T16:29:12.224Z,8.33
2018-10-11T16:31:39.935Z,8.37
2018-10-11T16:34:08.089Z,9.20
2018-10-11T16:36:35.894Z,10.93
2018-10-11T16:39:04.696Z,9.77
2018-10-11T16:41:32.344Z,9.80
2018-10-11T16:43:59.996Z,9.17
2018-10-11T16:46:27.682Z,9.10
2018-10-11T16:48:55.376Z,9.47
2018-10-11T16:51:23.040Z,8.93
2018-10-11T16:53:50.703Z,9.13
2018-10-11T16:56:18.381Z,8.00
2018-10-11T16:58:46.100Z,8.50
2018-10-11T17:01:13.766Z,8.57
2018-10-11T17:03:41.380Z,9.00
2018-10-11T17:06:09.049Z,8.80
2018-10-11T17:08:36.682Z,8.57
2018-10-11T17:11:04.404Z,8.40
2018-10-11T17:13:31.977Z,9.70
2018-10-11T17:15:59.585Z,9.47
2018-10-11T17:18:27.177Z,9.50
2018-10-11T17:20:54.926Z,9.33
2018-10-11T17:23:22.746Z,9.30
2018-10-11T17:25:50.599Z,10.50
2018-10-11T17:28:18.189Z,10.13
2018-10-11T17:30:45.957Z,9.00
2018-10-11T17:33:13.679Z,9.67
2018-10-11T17:35:41.398Z,9.30
2018-10-11T17:38:09.404Z,9.10
2018-10-11T17:40:37.269Z,10.00
2018-10-11T17:43:04.995Z,9.50
2018-10-11T17:45:32.846Z,9.70
2018-10-11T17:48:00.570Z,10.33
2018-10-11T17:50:28.485Z,9.07
2018-10-11T17:52:56.322Z,9.43
2018-10-11T17:55:24.157Z,9.50
2018-10-11T17:57:51.913Z,9.07
2018-10-11T18:00:19.673Z,11.83
2018-10-11T18:02:47.570Z,11.40
2018-10-11T18:05:15.284Z,11.40
2018-10-11T18:07:42.988Z,9.93
2018-10-11T18:10:10.849Z,10.27
2018-10-11T18:12:38.508Z,9.80
2018-10-11T18:15:06.513Z,10.80
2018-10-11T18:17:34.235Z,10.70
2018-10-11T18:20:02.071Z,10.50
2018-10-11T18:22:29.803Z,9.37
2018-10-11T18:24:57.804Z,10.50
2018-10-11T18:27:25.632Z,11.67
2018-10-11T18:29:53.489Z,11.43
2018-10-11T18:32:21.329Z,10.80
2018-10-11T18:34:49.168Z,10.40
2018-10-11T18:37:16.992Z,11.60
2018-10-11T18:39:44.735Z,10.63
2018-10-11T18:42:12.617Z,10.57
2018-10-11T18:44:40.503Z,11.80
2018-10-11T18:47:08.696Z,11.90
2018-10-11T18:49:36.470Z,11.77
2018-10-11T18:52:04.446Z,11.60
2018-10-11T18:54:32.413Z,10.90
2018-10-11T18:57:00.399Z,10.93
2018-10-11T18:59:28.478Z,11.60
2018-10-11T19:01:56.240Z,10.60
2018-10-11T19:04:24.509Z,12.03
2018-10-11T19:06:52.779Z,12.47
2018-10-11T19:09:20.830Z,11.60
2018-10-11T19:11:48.826Z,13.00
2018-10-11T19:14:16.726Z,13.40
2018-10-11T19:16:44.554Z,14.20
2018-10-11T19:19:12.563Z,14.30
2018-10-11T19:21:40.465Z,12.83
2018-10-11T19:24:08.483Z,14.30
2018-10-11T19:26:36.481Z,13.33
2018-10-11T19:29:04.473Z,14.67
2018-10-11T19:31:32.692Z,14.60
2018-10-11T19:34:00.638Z,13.83
2018-10-11T19:36:29.169Z,14.13
2018-10-11T19:38:57.124Z,13.10
2018-10-11T19:41:26.489Z,14.10
2018-10-11T19:43:54.658Z,14.10
2018-10-11T19:46:22.607Z,13.90
2018-10-11T19:48:50.574Z,14.60
2018-10-11T19:51:18.658Z,13.10
2018-10-11T19:53:47.100Z,13.87
2018-10-11T19:56:15.889Z,13.50
2018-10-11T19:58:45.058Z,13.37
2018-10-11T20:01:13.077Z,13.07
2018-10-11T20:03:40.938Z,13.83
2018-10-11T20:06:12.139Z,13.67
2018-10-11T20:08:41.769Z,13.70
2018-10-11T20:11:12.160Z,13.33
2018-10-11T20:13:40.049Z,13.87
2018-10-11T20:16:07.927Z,13.60
2018-10-11T20:18:36.342Z,12.90
2018-10-11T20:21:04.451Z,12.60
2018-10-11T20:23:32.338Z,12.63
2018-10-11T20:26:00.428Z,14.17
2018-10-11T20:28:28.264Z,14.40
2018-10-11T20:30:56.150Z,13.33
2018-10-11T20:33:23.903Z,13.43
2018-10-11T20:35:51.819Z,14.37
2018-10-11T20:38:19.560Z,12.97
2018-10-11T20:40:47.248Z,13.73
2018-10-11T20:43:15.016Z,14.17
2018-10-11T20:45:42.736Z,13.03
2018-10-11T20:48:10.544Z,13.57
2018-10-11T20:50:38.274Z,15.97
2018-10-11T20:53:06.017Z,19.53
2018-10-11T20:55:33.906Z,19.80
2018-10-11T20:58:01.591Z,25.63
2018-10-11T21:00:29.384Z,24.50
2018-10-11T21:02:57.136Z,25.03
2018-10-11T21:05:24.792Z,22.40
2018-10-11T21:07:52.469Z,21.17
2018-10-11T21:10:20.297Z,17.87
2018-10-11T21:12:47.945Z,15.50
2018-10-11T21:15:15.661Z,14.60
2018-10-11T21:17:43.360Z,15.47
2018-10-11T21:20:11.154Z,16.20
2018-10-11T21:22:38.775Z,16.43
2018-10-11T21:25:06.461Z,15.70
2018-10-11T21:27:34.024Z,14.70
2018-10-11T21:30:01.540Z,15.43
2018-10-11T21:32:29.178Z,15.83
2018-10-11T21:34:56.818Z,16.00
2018-10-11T21:37:25.494Z,16.20
2018-10-11T21:39:53.142Z,15.60
2018-10-11T21:42:20.781Z,16.73
2018-10-11T21:44:48.330Z,17.70
2018-10-11T21:47:15.927Z,15.87
2018-10-11T21:49:43.520Z,16.30
2018-10-11T21:52:11.358Z,14.57
2018-10-11T21:54:39.024Z,16.03
2018-10-11T21:57:06.917Z,14.97
2018-10-11T21:59:34.504Z,14.43
2018-10-11T22:02:04.318Z,14.87
2018-10-11T22:04:31.915Z,15.63
2018-10-11T22:06:59.449Z,14.77
2018-10-11T22:09:27.023Z,14.57
2018-10-11T22:11:54.612Z,14.83
2018-10-11T22:14:22.235Z,15.07
2018-10-11T22:16:49.800Z,15.63
2018-10-11T22:19:17.371Z,15.30
2018-10-11T22:21:44.935Z,15.40
2018-10-11T22:24:12.445Z,15.43
2018-10-11T22:26:40.073Z,14.63
2018-10-11T22:29:07.743Z,15.67
2018-10-11T22:31:35.281Z,15.10
2018-10-11T22:34:02.807Z,15.00
2018-10-11T22:36:30.376Z,15.57
2018-10-11T22:38:58.074Z,15.50
2018-10-11T22:41:25.641Z,14.33
2018-10-11T22:43:53.278Z,14.23
2018-10-11T22:46:20.906Z,14.03
2018-10-11T22:48:48.519Z,14.13
2018-10-11T22:51:16.081Z,14.33
2018-10-11T22:53:43.628Z,14.50
2018-10-11T22:56:11.243Z,14.57
2018-10-11T22:58:38.818Z,15.60
2018-10-11T23:01:06.509Z,15.90
2018-10-11T23:03:34.047Z,16.17
2018-10-11T23:06:01.538Z,15.83
2018-10-11T23:08:29.113Z,15.70
2018-10-11T23:10:56.635Z,16.13
2018-10-11T23:13:24.212Z,18.37
2018-10-11T23:15:51.774Z,17.87
2018-10-11T23:18:19.369Z,17.20
2018-10-11T23:20:46.948Z,16.03
2018-10-11T23:23:14.592Z,17.60
2018-10-11T23:25:42.123Z,17.20
2018-10-11T23:28:09.692Z,18.60
2018-10-11T23:30:37.280Z,18.83
2018-10-11T23:33:04.794Z,22.37
2018-10-11T23:35:32.309Z,22.53
2018-10-11T23:37:59.753Z,23.40
2018-10-11T23:40:27.276Z,25.43
2018-10-11T23:42:54.868Z,25.13
2018-10-11T23:45:22.411Z,25.33
2018-10-11T23:47:49.912Z,27.27
2018-10-11T23:50:17.441Z,23.50
2018-10-11T23:52:44.922Z,20.87
2018-10-11T23:55:12.443Z,19.73
2018-10-11T23:57:39.952Z,16.83
